sensor_id;sensor_type;location;lat;lon;timestamp;P1;durP1;ratioP1;P2;durP2;ratioP2
47539;SDS011;33280;52.152;21.052;2023-09-19T00:00:55;15.27;;;10.47;;
47539;SDS011;33280;52.152;21.052;2023-09-19T00:03:23;17.70;;;11.37;;
47539;SDS011;33280;52.152;21.052;2023-09-19T00:05:54;18.83;;;11.13;;
47539;SDS011;33280;52.152;21.052;2023-09-19T00:08:24;14.77;;;10.40;;
47539;SDS011;33280;52.152;21.052;2023-09-19T00:10:55;16.57;;;10.70;;
47539;SDS011;33280;52.152;21.052;2023-09-19T00:13:34;16.80;;;11.03;;
47539;SDS011;33280;52.152;21.052;2023-09-19T00:16:09;16.30;;;11.07;;
47539;SDS011;33280;52.152;21.052;2023-09-19T00:18:41;15.53;;;10.37;;
47539;SDS011;33280;52.152;21.052;2023-09-19T00:21:09;15.73;;;10.97;;
47539;SDS011;33280;52.152;21.052;2023-09-19T00:23:37;17.47;;;10.73;;
47539;SDS011;33280;52.152;21.052;2023-09-19T00:26:11;16.67;;;10.57;;
47539;SDS011;33280;52.152;21.052;2023-09-19T00:28:39;17.63;;;11.10;;
47539;SDS011;33280;52.152;21.052;2023-09-19T00:31:10;27.53;;;12.27;;
47539;SDS011;33280;52.152;21.052;2023-09-19T00:33:38;16.27;;;11.27;;
47539;SDS011;33280;52.152;21.052;2023-09-19T00:36:07;20.67;;;11.63;;
47539;SDS011;33280;52.152;21.052;2023-09-19T00:38:35;16.13;;;11.10;;
47539;SDS011;33280;52.152;21.052;2023-09-19T00:41:03;15.20;;;11.20;;
47539;SDS011;33280;52.152;21.052;2023-09-19T00:43:31;18.77;;;11.30;;
47539;SDS011;33280;52.152;21.052;2023-09-19T00:46:02;17.83;;;11.27;;
47539;SDS011;33280;52.152;21.052;2023-09-19T00:48:35;18.37;;;11.50;;
47539;SDS011;33280;52.152;21.052;2023-09-19T00:51:07;18.93;;;11.70;;
47539;SDS011;33280;52.152;21.052;2023-09-19T00:53:35;20.77;;;11.83;;
47539;SDS011;33280;52.152;21.052;2023-09-19T00:56:03;16.70;;;10.97;;
47539;SDS011;33280;52.152;21.052;2023-09-19T00:58:33;19.70;;;11.57;;
47539;SDS011;33280;52.152;21.052;2023-09-19T01:01:04;17.57;;;11.73;;
47539;SDS011;33280;52.152;21.052;2023-09-19T01:03:34;17.50;;;11.50;;
47539;SDS011;33280;52.152;21.052;2023-09-19T01:06:06;16.63;;;11.17;;
47539;SDS011;33280;52.152;21.052;2023-09-19T01:08:35;16.93;;;11.70;;
47539;SDS011;33280;52.152;21.052;2023-09-19T01:11:12;16.67;;;10.87;;
47539;SDS011;33280;52.152;21.052;2023-09-19T01:13:58;22.47;;;12.17;;
47539;SDS011;33280;52.152;21.052;2023-09-19T01:16:42;16.53;;;11.23;;
47539;SDS011;33280;52.152;21.052;2023-09-19T01:19:33;18.50;;;11.67;;
47539;SDS011;33280;52.152;21.052;2023-09-19T01:22:21;17.30;;;11.17;;
47539;SDS011;33280;52.152;21.052;2023-09-19T01:30:48;18.03;;;11.57;;
47539;SDS011;33280;52.152;21.052;2023-09-19T01:33:20;20.67;;;12.57;;
47539;SDS011;33280;52.152;21.052;2023-09-19T01:35:49;16.20;;;11.00;;
47539;SDS011;33280;52.152;21.052;2023-09-19T01:38:17;15.10;;;11.07;;
47539;SDS011;33280;52.152;21.052;2023-09-19T01:40:53;21.07;;;12.30;;
47539;SDS011;33280;52.152;21.052;2023-09-19T01:43:32;21.87;;;12.80;;
47539;SDS011;33280;52.152;21.052;2023-09-19T01:46:30;19.30;;;11.63;;
47539;SDS011;33280;52.152;21.052;2023-09-19T01:49:07;17.87;;;11.30;;
47539;SDS011;33280;52.152;21.052;2023-09-19T01:51:53;17.17;;;11.70;;
47539;SDS011;33280;52.152;21.052;2023-09-19T01:54:33;20.23;;;11.67;;
47539;SDS011;33280;52.152;21.052;2023-09-19T01:57:16;20.67;;;11.67;;
47539;SDS011;33280;52.152;21.052;2023-09-19T02:00:04;20.57;;;11.20;;
47539;SDS011;33280;52.152;21.052;2023-09-19T02:02:42;16.63;;;11.73;;
47539;SDS011;33280;52.152;21.052;2023-09-19T02:05:21;16.73;;;11.07;;
47539;SDS011;33280;52.152;21.052;2023-09-19T02:07:57;18.63;;;11.83;;
47539;SDS011;33280;52.152;21.052;2023-09-19T02:10:25;16.33;;;11.20;;
47539;SDS011;33280;52.152;21.052;2023-09-19T02:12:53;16.00;;;11.47;;
47539;SDS011;33280;52.152;21.052;2023-09-19T02:15:21;22.77;;;12.50;;
47539;SDS011;33280;52.152;21.052;2023-09-19T02:17:48;17.60;;;11.57;;
47539;SDS011;33280;52.152;21.052;2023-09-19T02:20:16;16.93;;;11.13;;
47539;SDS011;33280;52.152;21.052;2023-09-19T02:22:49;18.20;;;11.70;;
47539;SDS011;33280;52.152;21.052;2023-09-19T02:25:19;19.00;;;12.00;;
47539;SDS011;33280;52.152;21.052;2023-09-19T02:27:47;19.90;;;11.97;;
47539;SDS011;33280;52.152;21.052;2023-09-19T02:30:16;15.93;;;11.40;;
47539;SDS011;33280;52.152;21.052;2023-09-19T02:32:47;20.13;;;11.40;;
47539;SDS011;33280;52.152;21.052;2023-09-19T02:35:16;21.33;;;12.20;;
47539;SDS011;33280;52.152;21.052;2023-09-19T02:37:46;18.07;;;11.80;;
47539;SDS011;33280;52.152;21.052;2023-09-19T02:40:14;16.17;;;11.33;;
47539;SDS011;33280;52.152;21.052;2023-09-19T02:42:53;18.43;;;11.00;;
47539;SDS011;33280;52.152;21.052;2023-09-19T02:45:25;16.93;;;11.13;;
47539;SDS011;33280;52.152;21.052;2023-09-19T02:47:53;17.53;;;11.53;;
47539;SDS011;33280;52.152;21.052;2023-09-19T02:50:22;19.60;;;11.70;;
47539;SDS011;33280;52.152;21.052;2023-09-19T02:52:50;17.20;;;11.57;;
47539;SDS011;33280;52.152;21.052;2023-09-19T02:55:18;15.63;;;11.23;;
47539;SDS011;33280;52.152;21.052;2023-09-19T02:57:52;19.77;;;11.27;;
47539;SDS011;33280;52.152;21.052;2023-09-19T03:00:23;16.30;;;10.97;;
47539;SDS011;33280;52.152;21.052;2023-09-19T03:03:00;19.27;;;11.40;;
47539;SDS011;33280;52.152;21.052;2023-09-19T03:05:28;19.93;;;11.90;;
47539;SDS011;33280;52.152;21.052;2023-09-19T03:07:59;17.33;;;11.20;;
47539;SDS011;33280;52.152;21.052;2023-09-19T03:10:27;16.17;;;12.10;;
47539;SDS011;33280;52.152;21.052;2023-09-19T03:12:57;17.23;;;11.80;;
47539;SDS011;33280;52.152;21.052;2023-09-19T03:15:28;16.73;;;11.47;;
47539;SDS011;33280;52.152;21.052;2023-09-19T03:17:56;17.20;;;12.23;;
47539;SDS011;33280;52.152;21.052;2023-09-19T03:20:26;24.63;;;13.00;;
47539;SDS011;33280;52.152;21.052;2023-09-19T03:22:55;19.57;;;11.70;;
47539;SDS011;33280;52.152;21.052;2023-09-19T03:25:23;19.43;;;12.17;;
47539;SDS011;33280;52.152;21.052;2023-09-19T03:27:56;17.53;;;12.00;;
47539;SDS011;33280;52.152;21.052;2023-09-19T03:30:24;17.93;;;11.60;;
47539;SDS011;33280;52.152;21.052;2023-09-19T03:32:52;17.50;;;11.67;;
47539;SDS011;33280;52.152;21.052;2023-09-19T03:35:22;18.03;;;11.87;;
47539;SDS011;33280;52.152;21.052;2023-09-19T03:37:51;21.33;;;12.00;;
47539;SDS011;33280;52.152;21.052;2023-09-19T03:40:19;19.13;;;11.70;;
47539;SDS011;33280;52.152;21.052;2023-09-19T03:42:48;16.80;;;11.07;;
47539;SDS011;33280;52.152;21.052;2023-09-19T03:45:16;16.97;;;11.67;;
47539;SDS011;33280;52.152;21.052;2023-09-19T03:47:46;17.97;;;11.70;;
47539;SDS011;33280;52.152;21.052;2023-09-19T03:50:16;20.07;;;12.23;;
47539;SDS011;33280;52.152;21.052;2023-09-19T03:52:46;19.53;;;12.17;;
47539;SDS011;33280;52.152;21.052;2023-09-19T03:55:18;17.53;;;11.93;;
47539;SDS011;33280;52.152;21.052;2023-09-19T03:57:48;16.97;;;11.47;;
47539;SDS011;33280;52.152;21.052;2023-09-19T04:00:16;17.73;;;11.90;;
47539;SDS011;33280;52.152;21.052;2023-09-19T04:02:48;17.10;;;11.67;;
47539;SDS011;33280;52.152;21.052;2023-09-19T04:05:16;35.27;;;13.20;;
47539;SDS011;33280;52.152;21.052;2023-09-19T04:07:47;22.63;;;12.83;;
47539;SDS011;33280;52.152;21.052;2023-09-19T04:10:16;16.47;;;12.00;;
47539;SDS011;33280;52.152;21.052;2023-09-19T04:12:53;16.90;;;11.37;;
47539;SDS011;33280;52.152;21.052;2023-09-19T04:15:24;19.37;;;12.10;;
47539;SDS011;33280;52.152;21.052;2023-09-19T04:17:51;19.03;;;12.60;;
47539;SDS011;33280;52.152;21.052;2023-09-19T04:20:19;17.77;;;11.73;;
47539;SDS011;33280;52.152;21.052;2023-09-19T04:22:50;19.10;;;11.77;;
47539;SDS011;33280;52.152;21.052;2023-09-19T04:25:19;18.87;;;11.67;;
47539;SDS011;33280;52.152;21.052;2023-09-19T04:27:50;17.67;;;12.10;;
47539;SDS011;33280;52.152;21.052;2023-09-19T04:30:18;22.17;;;12.37;;
47539;SDS011;33280;52.152;21.052;2023-09-19T04:32:48;17.27;;;11.83;;
47539;SDS011;33280;52.152;21.052;2023-09-19T04:35:18;16.83;;;11.60;;
47539;SDS011;33280;52.152;21.052;2023-09-19T04:37:46;18.00;;;10.77;;
47539;SDS011;33280;52.152;21.052;2023-09-19T04:40:15;17.27;;;11.90;;
47539;SDS011;33280;52.152;21.052;2023-09-19T04:42:44;16.27;;;11.40;;
47539;SDS011;33280;52.152;21.052;2023-09-19T04:45:27;23.53;;;12.40;;
47539;SDS011;33280;52.152;21.052;2023-09-19T04:47:56;16.80;;;11.20;;
47539;SDS011;33280;52.152;21.052;2023-09-19T04:50:23;23.73;;;12.37;;
47539;SDS011;33280;52.152;21.052;2023-09-19T04:52:54;19.37;;;11.77;;
47539;SDS011;33280;52.152;21.052;2023-09-19T04:55:24;18.50;;;11.77;;
47539;SDS011;33280;52.152;21.052;2023-09-19T04:57:53;19.27;;;11.27;;
47539;SDS011;33280;52.152;21.052;2023-09-19T05:00:22;17.03;;;11.10;;
47539;SDS011;33280;52.152;21.052;2023-09-19T05:02:54;19.63;;;11.57;;
47539;SDS011;33280;52.152;21.052;2023-09-19T05:05:28;18.57;;;11.70;;
47539;SDS011;33280;52.152;21.052;2023-09-19T05:07:57;17.97;;;10.37;;
47539;SDS011;33280;52.152;21.052;2023-09-19T05:10:35;18.03;;;11.37;;
47539;SDS011;33280;52.152;21.052;2023-09-19T05:13:19;18.90;;;10.47;;
47539;SDS011;33280;52.152;21.052;2023-09-19T05:15:51;18.90;;;11.27;;
47539;SDS011;33280;52.152;21.052;2023-09-19T05:18:19;23.20;;;11.53;;
47539;SDS011;33280;52.152;21.052;2023-09-19T05:20:53;15.93;;;10.80;;
47539;SDS011;33280;52.152;21.052;2023-09-19T05:23:27;15.93;;;10.73;;
47539;SDS011;33280;52.152;21.052;2023-09-19T05:25:57;19.27;;;11.23;;
47539;SDS011;33280;52.152;21.052;2023-09-19T05:28:28;20.33;;;11.50;;
47539;SDS011;33280;52.152;21.052;2023-09-19T05:31:10;16.30;;;10.60;;
47539;SDS011;33280;52.152;21.052;2023-09-19T05:33:38;15.57;;;10.60;;
47539;SDS011;33280;52.152;21.052;2023-09-19T05:36:08;14.63;;;9.83;;
47539;SDS011;33280;52.152;21.052;2023-09-19T05:38:41;16.83;;;10.63;;
47539;SDS011;33280;52.152;21.052;2023-09-19T05:41:18;24.83;;;11.60;;
47539;SDS011;33280;52.152;21.052;2023-09-19T05:43:53;15.70;;;10.63;;
47539;SDS011;33280;52.152;21.052;2023-09-19T05:46:21;15.20;;;10.13;;
47539;SDS011;33280;52.152;21.052;2023-09-19T05:48:57;18.80;;;10.70;;
47539;SDS011;33280;52.152;21.052;2023-09-19T05:51:25;16.17;;;10.57;;
47539;SDS011;33280;52.152;21.052;2023-09-19T05:53:57;19.77;;;11.17;;
47539;SDS011;33280;52.152;21.052;2023-09-19T05:56:24;14.20;;;10.13;;
47539;SDS011;33280;52.152;21.052;2023-09-19T05:58:56;15.90;;;10.17;;
47539;SDS011;33280;52.152;21.052;2023-09-19T06:01:26;16.07;;;10.23;;
47539;SDS011;33280;52.152;21.052;2023-09-19T06:03:54;15.20;;;9.93;;
47539;SDS011;33280;52.152;21.052;2023-09-19T06:06:23;21.90;;;10.53;;
47539;SDS011;33280;52.152;21.052;2023-09-19T06:08:54;15.80;;;9.73;;
47539;SDS011;33280;52.152;21.052;2023-09-19T06:11:24;17.97;;;9.90;;
47539;SDS011;33280;52.152;21.052;2023-09-19T06:14:02;14.83;;;9.90;;
47539;SDS011;33280;52.152;21.052;2023-09-19T06:16:30;16.90;;;9.90;;
47539;SDS011;33280;52.152;21.052;2023-09-19T06:19:01;16.30;;;9.93;;
47539;SDS011;33280;52.152;21.052;2023-09-19T06:21:31;15.03;;;9.60;;
47539;SDS011;33280;52.152;21.052;2023-09-19T06:23:58;14.37;;;10.07;;
47539;SDS011;33280;52.152;21.052;2023-09-19T06:26:32;13.83;;;8.97;;
47539;SDS011;33280;52.152;21.052;2023-09-19T06:29:00;20.27;;;10.40;;
47539;SDS011;33280;52.152;21.052;2023-09-19T06:31:38;15.63;;;9.67;;
47539;SDS011;33280;52.152;21.052;2023-09-19T06:34:05;14.30;;;9.70;;
47539;SDS011;33280;52.152;21.052;2023-09-19T06:36:41;14.47;;;9.97;;
47539;SDS011;33280;52.152;21.052;2023-09-19T06:39:09;14.47;;;9.37;;
47539;SDS011;33280;52.152;21.052;2023-09-19T06:41:39;14.33;;;9.50;;
47539;SDS011;33280;52.152;21.052;2023-09-19T06:44:08;17.83;;;9.87;;
47539;SDS011;33280;52.152;21.052;2023-09-19T06:46:36;15.37;;;10.23;;
47539;SDS011;33280;52.152;21.052;2023-09-19T06:49:09;18.17;;;9.87;;
47539;SDS011;33280;52.152;21.052;2023-09-19T06:51:42;16.67;;;10.70;;
47539;SDS011;33280;52.152;21.052;2023-09-19T06:54:16;17.90;;;10.43;;
47539;SDS011;33280;52.152;21.052;2023-09-19T06:56:44;15.63;;;10.23;;
47539;SDS011;33280;52.152;21.052;2023-09-19T06:59:11;15.97;;;9.90;;
47539;SDS011;33280;52.152;21.052;2023-09-19T07:01:40;18.93;;;10.17;;
47539;SDS011;33280;52.152;21.052;2023-09-19T07:04:11;17.47;;;10.23;;
47539;SDS011;33280;52.152;21.052;2023-09-19T07:06:39;18.73;;;9.63;;
47539;SDS011;33280;52.152;21.052;2023-09-19T07:09:07;15.17;;;10.10;;
47539;SDS011;33280;52.152;21.052;2023-09-19T07:11:36;15.70;;;9.80;;
47539;SDS011;33280;52.152;21.052;2023-09-19T07:14:04;13.00;;;9.53;;
47539;SDS011;33280;52.152;21.052;2023-09-19T07:16:32;21.63;;;10.40;;
47539;SDS011;33280;52.152;21.052;2023-09-19T07:19:00;16.30;;;9.27;;
47539;SDS011;33280;52.152;21.052;2023-09-19T07:21:28;17.10;;;10.17;;
47539;SDS011;33280;52.152;21.052;2023-09-19T07:23:56;13.10;;;9.60;;
47539;SDS011;33280;52.152;21.052;2023-09-19T07:26:23;14.80;;;9.70;;
47539;SDS011;33280;52.152;21.052;2023-09-19T07:28:51;19.17;;;10.40;;
47539;SDS011;33280;52.152;21.052;2023-09-19T07:31:33;16.10;;;9.70;;
47539;SDS011;33280;52.152;21.052;2023-09-19T07:34:01;14.83;;;9.87;;
47539;SDS011;33280;52.152;21.052;2023-09-19T07:36:33;15.33;;;10.23;;
47539;SDS011;33280;52.152;21.052;2023-09-19T07:39:07;21.63;;;11.53;;
47539;SDS011;33280;52.152;21.052;2023-09-19T07:41:49;14.73;;;10.63;;
47539;SDS011;33280;52.152;21.052;2023-09-19T07:44:26;17.43;;;10.77;;
47539;SDS011;33280;52.152;21.052;2023-09-19T07:46:53;18.47;;;10.37;;
47539;SDS011;33280;52.152;21.052;2023-09-19T07:49:21;19.03;;;11.10;;
47539;SDS011;33280;52.152;21.052;2023-09-19T07:51:49;16.77;;;10.97;;
47539;SDS011;33280;52.152;21.052;2023-09-19T07:54:19;17.33;;;10.93;;
47539;SDS011;33280;52.152;21.052;2023-09-19T07:56:47;16.30;;;10.13;;
47539;SDS011;33280;52.152;21.052;2023-09-19T07:59:15;15.33;;;10.17;;
47539;SDS011;33280;52.152;21.052;2023-09-19T08:01:43;20.93;;;11.53;;
47539;SDS011;33280;52.152;21.052;2023-09-19T08:04:11;17.30;;;10.93;;
47539;SDS011;33280;52.152;21.052;2023-09-19T08:06:39;17.13;;;10.93;;
47539;SDS011;33280;52.152;21.052;2023-09-19T08:09:07;23.37;;;11.53;;
47539;SDS011;33280;52.152;21.052;2023-09-19T08:11:38;16.77;;;11.00;;
47539;SDS011;33280;52.152;21.052;2023-09-19T08:14:06;15.03;;;10.97;;
47539;SDS011;33280;52.152;21.052;2023-09-19T08:16:35;20.17;;;12.30;;
47539;SDS011;33280;52.152;21.052;2023-09-19T08:19:02;19.50;;;12.33;;
47539;SDS011;33280;52.152;21.052;2023-09-19T08:21:29;19.20;;;13.13;;
47539;SDS011;33280;52.152;21.052;2023-09-19T08:23:57;20.10;;;12.90;;
47539;SDS011;33280;52.152;21.052;2023-09-19T08:26:30;20.57;;;12.53;;
47539;SDS011;33280;52.152;21.052;2023-09-19T08:28:58;20.13;;;13.70;;
47539;SDS011;33280;52.152;21.052;2023-09-19T08:31:32;18.40;;;13.37;;
47539;SDS011;33280;52.152;21.052;2023-09-19T08:34:06;35.70;;;15.55;;
47539;SDS011;33280;52.152;21.052;2023-09-19T08:36:35;18.50;;;13.07;;
47539;SDS011;33280;52.152;21.052;2023-09-19T08:39:03;20.30;;;13.93;;
47539;SDS011;33280;52.152;21.052;2023-09-19T08:41:31;20.50;;;13.40;;
47539;SDS011;33280;52.152;21.052;2023-09-19T08:43:59;21.70;;;13.33;;
47539;SDS011;33280;52.152;21.052;2023-09-19T08:46:32;18.13;;;13.10;;
47539;SDS011;33280;52.152;21.052;2023-09-19T08:49:08;21.40;;;12.63;;
47539;SDS011;33280;52.152;21.052;2023-09-19T08:51:48;20.43;;;13.50;;
47539;SDS011;33280;52.152;21.052;2023-09-19T08:54:29;18.80;;;12.20;;
47539;SDS011;33280;52.152;21.052;2023-09-19T08:57:06;18.40;;;12.57;;
47539;SDS011;33280;52.152;21.052;2023-09-19T08:59:38;21.33;;;12.83;;
47539;SDS011;33280;52.152;21.052;2023-09-19T09:02:10;20.13;;;12.77;;
47539;SDS011;33280;52.152;21.052;2023-09-19T09:05:04;16.87;;;11.57;;
47539;SDS011;33280;52.152;21.052;2023-09-19T09:07:40;18.47;;;12.00;;
47539;SDS011;33280;52.152;21.052;2023-09-19T09:10:12;17.77;;;11.50;;
47539;SDS011;33280;52.152;21.052;2023-09-19T09:12:41;16.03;;;11.20;;
47539;SDS011;33280;52.152;21.052;2023-09-19T09:15:17;15.97;;;9.93;;
47539;SDS011;33280;52.152;21.052;2023-09-19T09:17:46;13.90;;;9.23;;
47539;SDS011;33280;52.152;21.052;2023-09-19T09:20:25;16.97;;;9.37;;
47539;SDS011;33280;52.152;21.052;2023-09-19T09:23:03;14.50;;;9.10;;
47539;SDS011;33280;52.152;21.052;2023-09-19T09:25:47;11.87;;;7.73;;
47539;SDS011;33280;52.152;21.052;2023-09-19T09:28:26;13.27;;;8.33;;
47539;SDS011;33280;52.152;21.052;2023-09-19T09:31:02;11.50;;;7.43;;
47539;SDS011;33280;52.152;21.052;2023-09-19T09:33:37;11.67;;;7.40;;
47539;SDS011;33280;52.152;21.052;2023-09-19T09:36:15;13.10;;;7.57;;
47539;SDS011;33280;52.152;21.052;2023-09-19T09:39:00;14.60;;;7.67;;
47539;SDS011;33280;52.152;21.052;2023-09-19T09:41:43;13.07;;;7.40;;
47539;SDS011;33280;52.152;21.052;2023-09-19T09:44:15;14.40;;;8.10;;
47539;SDS011;33280;52.152;21.052;2023-09-19T09:46:57;12.60;;;7.47;;
47539;SDS011;33280;52.152;21.052;2023-09-19T09:49:49;12.17;;;7.93;;
47539;SDS011;33280;52.152;21.052;2023-09-19T09:52:26;12.53;;;7.97;;
47539;SDS011;33280;52.152;21.052;2023-09-19T09:55:01;16.33;;;8.20;;
47539;SDS011;33280;52.152;21.052;2023-09-19T09:57:34;11.93;;;8.53;;
47539;SDS011;33280;52.152;21.052;2023-09-19T10:00:04;14.60;;;8.57;;
47539;SDS011;33280;52.152;21.052;2023-09-19T10:02:45;15.93;;;8.90;;
47539;SDS011;33280;52.152;21.052;2023-09-19T10:05:19;16.30;;;8.60;;
47539;SDS011;33280;52.152;21.052;2023-09-19T10:07:51;18.10;;;9.47;;
47539;SDS011;33280;52.152;21.052;2023-09-19T10:10:36;13.33;;;8.20;;
47539;SDS011;33280;52.152;21.052;2023-09-19T10:13:21;13.70;;;9.40;;
47539;SDS011;33280;52.152;21.052;2023-09-19T10:15:51;13.90;;;9.07;;
47539;SDS011;33280;52.152;21.052;2023-09-19T10:18:22;15.37;;;9.90;;
47539;SDS011;33280;52.152;21.052;2023-09-19T10:20:51;17.83;;;10.53;;
47539;SDS011;33280;52.152;21.052;2023-09-19T10:23:20;16.87;;;10.70;;
47539;SDS011;33280;52.152;21.052;2023-09-19T10:26:04;19.17;;;12.00;;
47539;SDS011;33280;52.152;21.052;2023-09-19T10:28:33;21.97;;;12.80;;
47539;SDS011;33280;52.152;21.052;2023-09-19T10:31:06;20.33;;;12.77;;
47539;SDS011;33280;52.152;21.052;2023-09-19T10:33:36;22.33;;;13.40;;
47539;SDS011;33280;52.152;21.052;2023-09-19T10:36:04;21.70;;;12.60;;
47539;SDS011;33280;52.152;21.052;2023-09-19T10:38:32;20.50;;;12.67;;
47539;SDS011;33280;52.152;21.052;2023-09-19T10:41:02;20.60;;;12.60;;
47539;SDS011;33280;52.152;21.052;2023-09-19T10:43:33;21.60;;;13.10;;
47539;SDS011;33280;52.152;21.052;2023-09-19T10:46:03;21.10;;;12.93;;
47539;SDS011;33280;52.152;21.052;2023-09-19T10:48:35;23.93;;;14.03;;
47539;SDS011;33280;52.152;21.052;2023-09-19T10:51:18;19.10;;;13.20;;
47539;SDS011;33280;52.152;21.052;2023-09-19T10:53:56;34.70;;;14.80;;
47539;SDS011;33280;52.152;21.052;2023-09-19T10:56:48;19.07;;;13.03;;
47539;SDS011;33280;52.152;21.052;2023-09-19T10:59:18;22.27;;;13.03;;
47539;SDS011;33280;52.152;21.052;2023-09-19T11:01:52;18.47;;;12.03;;
47539;SDS011;33280;52.152;21.052;2023-09-19T11:04:33;18.17;;;12.17;;
47539;SDS011;33280;52.152;21.052;2023-09-19T11:07:06;21.80;;;12.93;;
47539;SDS011;33280;52.152;21.052;2023-09-19T11:09:52;28.23;;;13.43;;
47539;SDS011;33280;52.152;21.052;2023-09-19T11:18:50;25.13;;;14.70;;
47539;SDS011;33280;52.152;21.052;2023-09-19T11:26:51;16.93;;;10.87;;
47539;SDS011;33280;52.152;21.052;2023-09-19T11:29:40;20.70;;;11.33;;
47539;SDS011;33280;52.152;21.052;2023-09-19T11:32:13;21.33;;;10.60;;
47539;SDS011;33280;52.152;21.052;2023-09-19T11:34:45;17.83;;;10.33;;
47539;SDS011;33280;52.152;21.052;2023-09-19T11:48:24;14.33;;;8.23;;
47539;SDS011;33280;52.152;21.052;2023-09-19T11:50:53;9.93;;;8.30;;
47539;SDS011;33280;52.152;21.052;2023-09-19T11:53:31;11.10;;;8.37;;
47539;SDS011;33280;52.152;21.052;2023-09-19T11:56:04;16.87;;;9.10;;
47539;SDS011;33280;52.152;21.052;2023-09-19T11:58:49;18.77;;;9.20;;
47539;SDS011;33280;52.152;21.052;2023-09-19T14:20:31;14.03;;;9.40;;
47539;SDS011;33280;52.152;21.052;2023-09-19T15:49:59;17.63;;;7.70;;
47539;SDS011;33280;52.152;21.052;2023-09-19T15:53:46;10.80;;;6.63;;
